SKPC/PCR METAR and TAF weather

Enter ICAO airport designator
Station Type Date Time Source
SKPC METAR 2020/01/21 00:00 UTC NOAA

SKPC 210000Z 02006KT 9999 NSC 31/22 A2974


Station Type Date Time Source
SKPC Decoded METAR 2020/01/21 00:00 UTC NOAA

Puerto Carreno / A. Guauquea, Colombia (SKPC) 06-10N 067-30W
Jan 20, 2020 - 07:00 PM EST / 2020.01.21 0000 UTC
Wind: from the NNE (020 degrees) at 7 MPH (6 KT):0
Visibility: greater than 7 mile(s):0
Temperature: 87 F (31 C)
Heat index: 92.3 F (33.5 C):1
Dew Point: 71 F (22 C)
Relative Humidity: 58%
Pressure (altimeter): 29.74 in. Hg (1007 hPa)
ob: SKPC 210000Z 02006KT 9999 NSC 31/22 A2974
cycle: 0

Station Type Date Time Source
SKPC TAF UTC NOAA

Error!

Example: see airport list